sensor_id;sensor_type;location;lat;lon;timestamp;temperature;humidity
65584;DHT22;62116;43.582;1.470;2022-10-20T00:01:19;21.06;85.33
65584;DHT22;62116;43.582;1.470;2022-10-20T00:03:46;21.09;85.14
65584;DHT22;62116;43.582;1.470;2022-10-20T00:06:23;21.12;85.21
65584;DHT22;62116;43.582;1.470;2022-10-20T00:08:49;21.11;85.36
65584;DHT22;62116;43.582;1.470;2022-10-20T00:11:17;21.15;85.22
65584;DHT22;62116;43.582;1.470;2022-10-20T00:13:44;21.15;85.29
65584;DHT22;62116;43.582;1.470;2022-10-20T00:16:11;21.18;85.12
65584;DHT22;62116;43.582;1.470;2022-10-20T00:18:37;21.18;85.35
65584;DHT22;62116;43.582;1.470;2022-10-20T00:21:05;21.14;84.98
65584;DHT22;62116;43.582;1.470;2022-10-20T00:23:31;21.14;85.38
65584;DHT22;62116;43.582;1.470;2022-10-20T00:26:07;21.15;85.11
65584;DHT22;62116;43.582;1.470;2022-10-20T00:28:34;21.14;85.24
65584;DHT22;62116;43.582;1.470;2022-10-20T00:31:00;21.12;85.20
65584;DHT22;62116;43.582;1.470;2022-10-20T00:33:26;21.12;84.97
65584;DHT22;62116;43.582;1.470;2022-10-20T00:35:51;21.09;85.22
65584;DHT22;62116;43.582;1.470;2022-10-20T00:38:17;21.05;85.21
65584;DHT22;62116;43.582;1.470;2022-10-20T00:40:43;21.05;85.23
65584;DHT22;62116;43.582;1.470;2022-10-20T00:43:11;21.08;85.30
65584;DHT22;62116;43.582;1.470;2022-10-20T00:45:36;21.09;85.21
65584;DHT22;62116;43.582;1.470;2022-10-20T00:48:24;21.06;85.19
65584;DHT22;62116;43.582;1.470;2022-10-20T00:50:52;21.04;85.39
65584;DHT22;62116;43.582;1.470;2022-10-20T00:53:19;21.06;85.16
65584;DHT22;62116;43.582;1.470;2022-10-20T00:55:48;21.06;85.42
65584;DHT22;62116;43.582;1.470;2022-10-20T00:58:14;21.08;85.36
65584;DHT22;62116;43.582;1.470;2022-10-20T01:00:41;21.05;85.78
65584;DHT22;62116;43.582;1.470;2022-10-20T01:03:13;21.08;85.79
65584;DHT22;62116;43.582;1.470;2022-10-20T01:05:39;21.06;85.47
65584;DHT22;62116;43.582;1.470;2022-10-20T01:08:04;21.08;85.32
65584;DHT22;62116;43.582;1.470;2022-10-20T01:10:37;21.08;85.56
65584;DHT22;62116;43.582;1.470;2022-10-20T01:13:24;21.09;85.47
65584;DHT22;62116;43.582;1.470;2022-10-20T01:15:59;21.06;86.14
65584;DHT22;62116;43.582;1.470;2022-10-20T01:24:45;21.06;85.74
65584;DHT22;62116;43.582;1.470;2022-10-20T01:27:24;21.11;85.64
65584;DHT22;62116;43.582;1.470;2022-10-20T01:43:27;20.87;86.54
65584;DHT22;62116;43.582;1.470;2022-10-20T01:45:56;20.91;86.21
65584;DHT22;62116;43.582;1.470;2022-10-20T01:48:25;20.88;86.30
65584;DHT22;62116;43.582;1.470;2022-10-20T01:50:52;20.87;86.55
65584;DHT22;62116;43.582;1.470;2022-10-20T01:53:19;20.90;86.14
65584;DHT22;62116;43.582;1.470;2022-10-20T01:55:44;20.90;86.28
65584;DHT22;62116;43.582;1.470;2022-10-20T02:00:58;20.90;86.00
65584;DHT22;62116;43.582;1.470;2022-10-20T02:04:00;20.91;86.04
65584;DHT22;62116;43.582;1.470;2022-10-20T02:06:42;20.88;85.94
65584;DHT22;62116;43.582;1.470;2022-10-20T02:09:22;20.91;85.80
65584;DHT22;62116;43.582;1.470;2022-10-20T02:14:25;20.88;85.71
65584;DHT22;62116;43.582;1.470;2022-10-20T02:16:59;20.87;85.75
65584;DHT22;62116;43.582;1.470;2022-10-20T02:19:30;20.83;85.76
65584;DHT22;62116;43.582;1.470;2022-10-20T02:21:58;20.81;86.03
65584;DHT22;62116;43.582;1.470;2022-10-20T02:24:27;20.80;85.69
65584;DHT22;62116;43.582;1.470;2022-10-20T02:26:55;20.81;85.64
65584;DHT22;62116;43.582;1.470;2022-10-20T02:29:27;20.77;85.84
65584;DHT22;62116;43.582;1.470;2022-10-20T02:31:54;20.75;85.46
65584;DHT22;62116;43.582;1.470;2022-10-20T02:34:20;20.77;85.44
65584;DHT22;62116;43.582;1.470;2022-10-20T02:36:45;20.73;85.39
65584;DHT22;62116;43.582;1.470;2022-10-20T02:39:11;20.74;85.13
65584;DHT22;62116;43.582;1.470;2022-10-20T02:41:36;20.77;85.08
65584;DHT22;62116;43.582;1.470;2022-10-20T02:44:02;20.73;85.26
65584;DHT22;62116;43.582;1.470;2022-10-20T02:46:28;20.71;85.25
65584;DHT22;62116;43.582;1.470;2022-10-20T02:48:53;20.74;85.19
65584;DHT22;62116;43.582;1.470;2022-10-20T02:51:19;20.70;85.13
65584;DHT22;62116;43.582;1.470;2022-10-20T02:53:44;20.67;85.40
65584;DHT22;62116;43.582;1.470;2022-10-20T02:56:10;20.65;85.38
65584;DHT22;62116;43.582;1.470;2022-10-20T02:58:36;20.67;85.16
65584;DHT22;62116;43.582;1.470;2022-10-20T03:01:02;20.61;85.45
65584;DHT22;62116;43.582;1.470;2022-10-20T03:03:28;20.63;85.25
65584;DHT22;62116;43.582;1.470;2022-10-20T03:05:53;20.65;84.97
65584;DHT22;62116;43.582;1.470;2022-10-20T03:08:19;20.64;85.11
65584;DHT22;62116;43.582;1.470;2022-10-20T03:10:44;20.63;84.96
65584;DHT22;62116;43.582;1.470;2022-10-20T03:13:10;20.61;84.92
65584;DHT22;62116;43.582;1.470;2022-10-20T03:15:36;20.60;84.96
65584;DHT22;62116;43.582;1.470;2022-10-20T03:18:02;20.55;85.10
65584;DHT22;62116;43.582;1.470;2022-10-20T03:20:27;20.51;85.22
65584;DHT22;62116;43.582;1.470;2022-10-20T03:22:53;20.50;85.22
65584;DHT22;62116;43.582;1.470;2022-10-20T03:25:18;20.47;85.29
65584;DHT22;62116;43.582;1.470;2022-10-20T03:27:44;20.45;85.17
65584;DHT22;62116;43.582;1.470;2022-10-20T03:30:09;20.43;85.22
65584;DHT22;62116;43.582;1.470;2022-10-20T03:32:35;20.40;85.22
65584;DHT22;62116;43.582;1.470;2022-10-20T03:35:00;20.44;85.20
65584;DHT22;62116;43.582;1.470;2022-10-20T03:37:26;20.43;85.02
65584;DHT22;62116;43.582;1.470;2022-10-20T03:39:51;20.39;85.11
65584;DHT22;62116;43.582;1.470;2022-10-20T03:42:16;20.40;84.87
65584;DHT22;62116;43.582;1.470;2022-10-20T03:44:42;20.43;84.60
65584;DHT22;62116;43.582;1.470;2022-10-20T03:47:10;20.41;84.54
65584;DHT22;62116;43.582;1.470;2022-10-20T03:49:36;20.37;84.57
65584;DHT22;62116;43.582;1.470;2022-10-20T03:52:01;20.34;84.75
65584;DHT22;62116;43.582;1.470;2022-10-20T03:54:27;20.31;84.80
65584;DHT22;62116;43.582;1.470;2022-10-20T03:56:52;20.33;84.86
65584;DHT22;62116;43.582;1.470;2022-10-20T03:59:18;20.34;84.71
65584;DHT22;62116;43.582;1.470;2022-10-20T04:01:44;20.33;84.80
65584;DHT22;62116;43.582;1.470;2022-10-20T04:04:10;20.31;84.95
65584;DHT22;62116;43.582;1.470;2022-10-20T04:06:36;20.27;85.01
65584;DHT22;62116;43.582;1.470;2022-10-20T04:09:01;20.27;85.01
65584;DHT22;62116;43.582;1.470;2022-10-20T04:11:27;20.27;84.69
65584;DHT22;62116;43.582;1.470;2022-10-20T04:13:53;20.26;84.88
65584;DHT22;62116;43.582;1.470;2022-10-20T04:16:18;20.26;84.72
65584;DHT22;62116;43.582;1.470;2022-10-20T04:18:44;20.21;84.91
65584;DHT22;62116;43.582;1.470;2022-10-20T04:21:09;20.24;84.71
65584;DHT22;62116;43.582;1.470;2022-10-20T04:23:35;20.23;84.61
65584;DHT22;62116;43.582;1.470;2022-10-20T04:26:07;20.21;84.55
65584;DHT22;62116;43.582;1.470;2022-10-20T04:28:33;20.20;84.47
65584;DHT22;62116;43.582;1.470;2022-10-20T04:30:59;20.16;84.94
65584;DHT22;62116;43.582;1.470;2022-10-20T04:33:24;20.16;84.87
65584;DHT22;62116;43.582;1.470;2022-10-20T04:35:56;20.21;84.62
65584;DHT22;62116;43.582;1.470;2022-10-20T04:38:22;20.19;85.06
65584;DHT22;62116;43.582;1.470;2022-10-20T04:40:58;20.21;85.09
65584;DHT22;62116;43.582;1.470;2022-10-20T04:43:24;20.21;84.83
65584;DHT22;62116;43.582;1.470;2022-10-20T04:45:50;20.20;84.99
65584;DHT22;62116;43.582;1.470;2022-10-20T04:48:18;20.21;84.85
65584;DHT22;62116;43.582;1.470;2022-10-20T04:50:43;20.21;85.10
65584;DHT22;62116;43.582;1.470;2022-10-20T04:53:09;20.24;84.80
65584;DHT22;62116;43.582;1.470;2022-10-20T04:55:34;20.23;85.08
65584;DHT22;62116;43.582;1.470;2022-10-20T04:58:00;20.24;85.29
65584;DHT22;62116;43.582;1.470;2022-10-20T05:00:25;20.23;85.51
65584;DHT22;62116;43.582;1.470;2022-10-20T05:02:51;20.26;85.66
65584;DHT22;62116;43.582;1.470;2022-10-20T05:05:16;20.27;85.61
65584;DHT22;62116;43.582;1.470;2022-10-20T05:07:42;20.29;85.74
65584;DHT22;62116;43.582;1.470;2022-10-20T05:10:07;20.29;86.02
65584;DHT22;62116;43.582;1.470;2022-10-20T05:12:33;20.24;86.29
65584;DHT22;62116;43.582;1.470;2022-10-20T05:14:58;20.26;86.26
65584;DHT22;62116;43.582;1.470;2022-10-20T05:17:24;20.23;86.94
65584;DHT22;62116;43.582;1.470;2022-10-20T05:19:49;20.24;87.05
65584;DHT22;62116;43.582;1.470;2022-10-20T05:22:14;20.26;87.18
65584;DHT22;62116;43.582;1.470;2022-10-20T05:24:40;20.20;87.72
65584;DHT22;62116;43.582;1.470;2022-10-20T05:27:05;20.24;87.93
65584;DHT22;62116;43.582;1.470;2022-10-20T05:29:30;20.21;88.50
65584;DHT22;62116;43.582;1.470;2022-10-20T05:31:56;20.26;88.55
65584;DHT22;62116;43.582;1.470;2022-10-20T05:34:21;20.26;89.12
65584;DHT22;62116;43.582;1.470;2022-10-20T05:36:47;20.29;89.05
65584;DHT22;62116;43.582;1.470;2022-10-20T05:39:12;20.29;89.19
65584;DHT22;62116;43.582;1.470;2022-10-20T05:41:38;20.34;89.04
65584;DHT22;62116;43.582;1.470;2022-10-20T05:44:04;20.36;89.15
65584;DHT22;62116;43.582;1.470;2022-10-20T05:46:32;20.34;88.96
65584;DHT22;62116;43.582;1.470;2022-10-20T05:48:59;20.37;88.87
65584;DHT22;62116;43.582;1.470;2022-10-20T05:51:27;20.37;88.81
65584;DHT22;62116;43.582;1.470;2022-10-20T05:53:57;20.40;88.69
65584;DHT22;62116;43.582;1.470;2022-10-20T05:56:24;20.39;88.58
65584;DHT22;62116;43.582;1.470;2022-10-20T05:58:50;20.40;88.28
65584;DHT22;62116;43.582;1.470;2022-10-20T06:01:19;20.43;88.15
65584;DHT22;62116;43.582;1.470;2022-10-20T06:03:58;20.43;88.18
65584;DHT22;62116;43.582;1.470;2022-10-20T06:06:26;20.41;88.17
65584;DHT22;62116;43.582;1.470;2022-10-20T06:08:56;20.44;87.92
65584;DHT22;62116;43.582;1.470;2022-10-20T06:11:22;20.41;88.11
65584;DHT22;62116;43.582;1.470;2022-10-20T06:13:48;20.45;88.04
65584;DHT22;62116;43.582;1.470;2022-10-20T06:16:16;20.44;88.14
65584;DHT22;62116;43.582;1.470;2022-10-20T06:18:41;20.44;87.80
65584;DHT22;62116;43.582;1.470;2022-10-20T06:21:13;20.44;87.60
65584;DHT22;62116;43.582;1.470;2022-10-20T06:23:39;20.44;87.59
65584;DHT22;62116;43.582;1.470;2022-10-20T06:26:07;20.44;87.62
65584;DHT22;62116;43.582;1.470;2022-10-20T06:28:34;20.43;87.49
65584;DHT22;62116;43.582;1.470;2022-10-20T06:34:14;20.44;87.60
65584;DHT22;62116;43.582;1.470;2022-10-20T06:36:40;20.44;87.55
65584;DHT22;62116;43.582;1.470;2022-10-20T06:39:09;20.44;87.56
65584;DHT22;62116;43.582;1.470;2022-10-20T06:41:34;20.41;87.68
65584;DHT22;62116;43.582;1.470;2022-10-20T06:44:00;20.45;87.70
65584;DHT22;62116;43.582;1.470;2022-10-20T06:46:31;20.44;87.83
65584;DHT22;62116;43.582;1.470;2022-10-20T06:49:01;20.44;87.86
65584;DHT22;62116;43.582;1.470;2022-10-20T06:51:31;20.43;87.82
65584;DHT22;62116;43.582;1.470;2022-10-20T06:53:58;20.43;87.79
65584;DHT22;62116;43.582;1.470;2022-10-20T06:56:26;20.44;87.94
65584;DHT22;62116;43.582;1.470;2022-10-20T06:58:54;20.44;87.82
65584;DHT22;62116;43.582;1.470;2022-10-20T07:01:34;20.47;87.72
65584;DHT22;62116;43.582;1.470;2022-10-20T07:04:02;20.45;87.65
65584;DHT22;62116;43.582;1.470;2022-10-20T07:06:30;20.47;87.57
65584;DHT22;62116;43.582;1.470;2022-10-20T07:08:57;20.50;87.46
65584;DHT22;62116;43.582;1.470;2022-10-20T07:11:25;20.48;87.47
65584;DHT22;62116;43.582;1.470;2022-10-20T07:13:51;20.47;87.38
65584;DHT22;62116;43.582;1.470;2022-10-20T07:16:19;20.51;87.32
65584;DHT22;62116;43.582;1.470;2022-10-20T07:18:45;20.51;87.23
65584;DHT22;62116;43.582;1.470;2022-10-20T07:21:13;20.54;86.92
65584;DHT22;62116;43.582;1.470;2022-10-20T07:23:39;20.54;86.92
65584;DHT22;62116;43.582;1.470;2022-10-20T07:26:14;20.55;86.65
65584;DHT22;62116;43.582;1.470;2022-10-20T07:28:41;20.55;86.45
65584;DHT22;62116;43.582;1.470;2022-10-20T07:31:29;20.58;86.25
65584;DHT22;62116;43.582;1.470;2022-10-20T07:33:57;20.57;86.18
65584;DHT22;62116;43.582;1.470;2022-10-20T07:36:25;20.57;86.24
65584;DHT22;62116;43.582;1.470;2022-10-20T07:38:53;20.58;86.01
65584;DHT22;62116;43.582;1.470;2022-10-20T07:41:19;20.58;85.94
65584;DHT22;62116;43.582;1.470;2022-10-20T07:43:45;20.58;85.76
65584;DHT22;62116;43.582;1.470;2022-10-20T07:46:11;20.58;85.78
65584;DHT22;62116;43.582;1.470;2022-10-20T07:48:37;20.58;85.75
65584;DHT22;62116;43.582;1.470;2022-10-20T07:53:52;20.60;85.79
65584;DHT22;62116;43.582;1.470;2022-10-20T07:56:18;20.60;85.76
65584;DHT22;62116;43.582;1.470;2022-10-20T07:58:45;20.60;85.90
65584;DHT22;62116;43.582;1.470;2022-10-20T08:01:10;20.61;85.96
65584;DHT22;62116;43.582;1.470;2022-10-20T08:03:36;20.63;85.89
65584;DHT22;62116;43.582;1.470;2022-10-20T08:06:02;20.65;85.85
65584;DHT22;62116;43.582;1.470;2022-10-20T08:08:27;20.60;86.03
65584;DHT22;62116;43.582;1.470;2022-10-20T08:10:53;20.58;86.21
65584;DHT22;62116;43.582;1.470;2022-10-20T08:13:18;20.60;86.30
65584;DHT22;62116;43.582;1.470;2022-10-20T08:15:44;20.61;86.45
65584;DHT22;62116;43.582;1.470;2022-10-20T08:18:09;20.58;86.46
65584;DHT22;62116;43.582;1.470;2022-10-20T08:20:35;20.58;86.30
65584;DHT22;62116;43.582;1.470;2022-10-20T08:23:00;20.57;86.20
65584;DHT22;62116;43.582;1.470;2022-10-20T08:25:26;20.57;86.12
65584;DHT22;62116;43.582;1.470;2022-10-20T08:27:51;20.60;86.09
65584;DHT22;62116;43.582;1.470;2022-10-20T08:30:17;20.61;86.04
65584;DHT22;62116;43.582;1.470;2022-10-20T08:32:42;20.60;86.10
65584;DHT22;62116;43.582;1.470;2022-10-20T08:35:08;20.61;85.91
65584;DHT22;62116;43.582;1.470;2022-10-20T08:37:34;20.64;86.00
65584;DHT22;62116;43.582;1.470;2022-10-20T08:40:02;20.68;85.99
65584;DHT22;62116;43.582;1.470;2022-10-20T08:42:27;20.65;85.93
65584;DHT22;62116;43.582;1.470;2022-10-20T08:44:54;20.67;85.88
65584;DHT22;62116;43.582;1.470;2022-10-20T08:47:30;20.65;85.94
65584;DHT22;62116;43.582;1.470;2022-10-20T08:49:56;20.70;85.88
65584;DHT22;62116;43.582;1.470;2022-10-20T08:52:23;20.71;85.89
65584;DHT22;62116;43.582;1.470;2022-10-20T08:54:52;20.67;85.87
65584;DHT22;62116;43.582;1.470;2022-10-20T08:57:29;20.73;85.78
65584;DHT22;62116;43.582;1.470;2022-10-20T09:00:06;20.70;85.76
65584;DHT22;62116;43.582;1.470;2022-10-20T09:02:33;20.68;85.71
65584;DHT22;62116;43.582;1.470;2022-10-20T09:04:59;20.71;85.70
65584;DHT22;62116;43.582;1.470;2022-10-20T09:07:30;20.73;85.59
65584;DHT22;62116;43.582;1.470;2022-10-20T09:12:51;20.74;85.62
65584;DHT22;62116;43.582;1.470;2022-10-20T09:15:17;20.77;85.44
65584;DHT22;62116;43.582;1.470;2022-10-20T09:17:53;20.75;85.68
65584;DHT22;62116;43.582;1.470;2022-10-20T09:20:26;20.78;85.65
65584;DHT22;62116;43.582;1.470;2022-10-20T09:22:52;20.80;85.60
65584;DHT22;62116;43.582;1.470;2022-10-20T09:25:21;20.81;85.59
65584;DHT22;62116;43.582;1.470;2022-10-20T09:27:49;20.84;85.62
65584;DHT22;62116;43.582;1.470;2022-10-20T09:30:18;20.83;85.73
65584;DHT22;62116;43.582;1.470;2022-10-20T09:32:44;20.88;85.71
65584;DHT22;62116;43.582;1.470;2022-10-20T09:35:18;20.90;85.58
65584;DHT22;62116;43.582;1.470;2022-10-20T09:37:57;20.88;85.67
65584;DHT22;62116;43.582;1.470;2022-10-20T09:40:24;20.90;85.64
65584;DHT22;62116;43.582;1.470;2022-10-20T09:43:04;20.96;85.61
65584;DHT22;62116;43.582;1.470;2022-10-20T09:45:32;20.96;85.44
65584;DHT22;62116;43.582;1.470;2022-10-20T09:48:18;21.01;85.24
65584;DHT22;62116;43.582;1.470;2022-10-20T09:50:48;21.02;85.05
65584;DHT22;62116;43.582;1.470;2022-10-20T09:53:21;21.06;85.08
65584;DHT22;62116;43.582;1.470;2022-10-20T09:55:49;21.12;84.71
65584;DHT22;62116;43.582;1.470;2022-10-20T09:58:31;21.14;84.24
65584;DHT22;62116;43.582;1.470;2022-10-20T10:01:12;21.16;84.13
65584;DHT22;62116;43.582;1.470;2022-10-20T10:03:46;21.21;83.69
65584;DHT22;62116;43.582;1.470;2022-10-20T10:08:51;21.28;83.30
65584;DHT22;62116;43.582;1.470;2022-10-20T10:11:18;21.32;83.39
65584;DHT22;62116;43.582;1.470;2022-10-20T10:13:46;21.32;83.08
65584;DHT22;62116;43.582;1.470;2022-10-20T10:16:15;21.35;83.02
65584;DHT22;62116;43.582;1.470;2022-10-20T10:18:43;21.38;82.98
65584;DHT22;62116;43.582;1.470;2022-10-20T10:21:13;21.39;82.76
65584;DHT22;62116;43.582;1.470;2022-10-20T10:24:01;21.42;82.36
65584;DHT22;62116;43.582;1.470;2022-10-20T10:29:03;21.50;81.87
65584;DHT22;62116;43.582;1.470;2022-10-20T10:31:31;21.52;81.97
65584;DHT22;62116;43.582;1.470;2022-10-20T10:36:42;21.60;81.66
65584;DHT22;62116;43.582;1.470;2022-10-20T10:39:13;21.63;81.42
65584;DHT22;62116;43.582;1.470;2022-10-20T10:47:11;21.79;80.70
65584;DHT22;62116;43.582;1.470;2022-10-20T10:50:36;21.83;80.41
65584;DHT22;62116;43.582;1.470;2022-10-20T11:07:35;22.03;78.79
65584;DHT22;62116;43.582;1.470;2022-10-20T11:16:00;22.09;78.76
65584;DHT22;62116;43.582;1.470;2022-10-20T11:25:18;22.09;78.64
65584;DHT22;62116;43.582;1.470;2022-10-20T11:27:20;22.10;78.89
65584;DHT22;62116;43.582;1.470;2022-10-20T11:29:51;22.12;78.75
65584;DHT22;62116;43.582;1.470;2022-10-20T11:32:25;22.13;78.75
65584;DHT22;62116;43.582;1.470;2022-10-20T11:45:55;22.13;78.08
65584;DHT22;62116;43.582;1.470;2022-10-20T11:48:29;22.17;78.07
65584;DHT22;62116;43.582;1.470;2022-10-20T11:53:34;22.16;77.86
65584;DHT22;62116;43.582;1.470;2022-10-20T12:12:46;22.20;76.60
65584;DHT22;62116;43.582;1.470;2022-10-20T12:15:21;22.21;76.89
65584;DHT22;62116;43.582;1.470;2022-10-20T12:17:47;22.21;76.70
65584;DHT22;62116;43.582;1.470;2022-10-20T12:22:45;22.21;76.87
65584;DHT22;62116;43.582;1.470;2022-10-20T12:30:58;22.18;77.12
65584;DHT22;62116;43.582;1.470;2022-10-20T12:38:45;22.14;77.33
65584;DHT22;62116;43.582;1.470;2022-10-20T12:41:25;22.16;77.05
65584;DHT22;62116;43.582;1.470;2022-10-20T12:43:53;22.13;76.83
65584;DHT22;62116;43.582;1.470;2022-10-20T12:46:26;22.13;76.75
65584;DHT22;62116;43.582;1.470;2022-10-20T12:48:55;22.14;76.87
65584;DHT22;62116;43.582;1.470;2022-10-20T12:51:37;22.16;76.37
65584;DHT22;62116;43.582;1.470;2022-10-20T12:54:15;22.14;76.08
65584;DHT22;62116;43.582;1.470;2022-10-20T12:56:43;22.16;75.46
65584;DHT22;62116;43.582;1.470;2022-10-20T13:10:31;22.18;74.52
65584;DHT22;62116;43.582;1.470;2022-10-20T13:15:25;22.18;74.62
65584;DHT22;62116;43.582;1.470;2022-10-20T13:17:55;22.16;74.68
65584;DHT22;62116;43.582;1.470;2022-10-20T13:20:27;22.20;74.39
65584;DHT22;62116;43.582;1.470;2022-10-20T13:22:54;22.18;74.59
65584;DHT22;62116;43.582;1.470;2022-10-20T13:25:39;22.20;74.50
65584;DHT22;62116;43.582;1.470;2022-10-20T13:39:38;22.25;73.66
65584;DHT22;62116;43.582;1.470;2022-10-20T13:47:55;22.27;72.62
65584;DHT22;62116;43.582;1.470;2022-10-20T13:50:39;22.27;72.45
65584;DHT22;62116;43.582;1.470;2022-10-20T13:58:32;22.29;72.51
65584;DHT22;62116;43.582;1.470;2022-10-20T14:01:25;22.27;72.65
65584;DHT22;62116;43.582;1.470;2022-10-20T14:03:50;22.29;72.62
65584;DHT22;62116;43.582;1.470;2022-10-20T14:06:35;22.25;72.42
65584;DHT22;62116;43.582;1.470;2022-10-20T14:09:23;22.29;71.91
65584;DHT22;62116;43.582;1.470;2022-10-20T14:11:57;22.27;71.89
65584;DHT22;62116;43.582;1.470;2022-10-20T14:14:25;22.29;71.61
65584;DHT22;62116;43.582;1.470;2022-10-20T14:16:53;22.29;71.97
65584;DHT22;62116;43.582;1.470;2022-10-20T14:19:21;22.29;71.81
65584;DHT22;62116;43.582;1.470;2022-10-20T14:21:50;22.25;71.78
65584;DHT22;62116;43.582;1.470;2022-10-20T14:24:22;22.30;71.77
65584;DHT22;62116;43.582;1.470;2022-10-20T14:26:50;22.29;71.41
65584;DHT22;62116;43.582;1.470;2022-10-20T14:29:17;22.30;71.36
65584;DHT22;62116;43.582;1.470;2022-10-20T14:31:44;22.30;71.54
65584;DHT22;62116;43.582;1.470;2022-10-20T14:34:27;22.32;71.61
65584;DHT22;62116;43.582;1.470;2022-10-20T14:36:54;22.32;71.28
65584;DHT22;62116;43.582;1.470;2022-10-20T14:39:36;22.34;70.75
65584;DHT22;62116;43.582;1.470;2022-10-20T14:42:04;22.37;70.41
65584;DHT22;62116;43.582;1.470;2022-10-20T14:44:30;22.34;70.31
65584;DHT22;62116;43.582;1.470;2022-10-20T14:46:58;22.37;70.17
65584;DHT22;62116;43.582;1.470;2022-10-20T14:49:26;22.37;70.19
65584;DHT22;62116;43.582;1.470;2022-10-20T14:57:00;22.39;69.62
65584;DHT22;62116;43.582;1.470;2022-10-20T14:59:31;22.39;69.43
65584;DHT22;62116;43.582;1.470;2022-10-20T15:04:24;22.40;69.26
65584;DHT22;62116;43.582;1.470;2022-10-20T15:07:22;22.41;69.00
65584;DHT22;62116;43.582;1.470;2022-10-20T15:09:51;22.44;69.17
65584;DHT22;62116;43.582;1.470;2022-10-20T15:12:19;22.43;68.78
65584;DHT22;62116;43.582;1.470;2022-10-20T15:14:50;22.44;68.76
65584;DHT22;62116;43.582;1.470;2022-10-20T15:17:35;22.44;68.96
65584;DHT22;62116;43.582;1.470;2022-10-20T15:20:36;22.44;69.08
65584;DHT22;62116;43.582;1.470;2022-10-20T15:28:29;22.47;68.70
65584;DHT22;62116;43.582;1.470;2022-10-20T15:30:56;22.45;68.34
65584;DHT22;62116;43.582;1.470;2022-10-20T15:33:24;22.48;68.40
65584;DHT22;62116;43.582;1.470;2022-10-20T15:35:49;22.50;68.46
65584;DHT22;62116;43.582;1.470;2022-10-20T15:38:16;22.50;68.45
65584;DHT22;62116;43.582;1.470;2022-10-20T15:40:42;22.51;68.44
65584;DHT22;62116;43.582;1.470;2022-10-20T15:43:11;22.51;68.48
65584;DHT22;62116;43.582;1.470;2022-10-20T15:45:38;22.51;68.72
65584;DHT22;62116;43.582;1.470;2022-10-20T15:48:04;22.51;68.29
65584;DHT22;62116;43.582;1.470;2022-10-20T15:50:30;22.53;68.53
65584;DHT22;62116;43.582;1.470;2022-10-20T15:52:55;22.51;68.26
65584;DHT22;62116;43.582;1.470;2022-10-20T15:55:28;22.50;68.20
65584;DHT22;62116;43.582;1.470;2022-10-20T15:57:54;22.53;68.29
65584;DHT22;62116;43.582;1.470;2022-10-20T16:00:22;22.47;68.35
65584;DHT22;62116;43.582;1.470;2022-10-20T16:02:48;22.48;68.25
65584;DHT22;62116;43.582;1.470;2022-10-20T16:05:15;22.48;68.12
65584;DHT22;62116;43.582;1.470;2022-10-20T16:07:41;22.48;68.14
65584;DHT22;62116;43.582;1.470;2022-10-20T16:10:08;22.48;68.31
65584;DHT22;62116;43.582;1.470;2022-10-20T16:12:34;22.45;68.32
65584;DHT22;62116;43.582;1.470;2022-10-20T16:15:00;22.45;68.39
65584;DHT22;62116;43.582;1.470;2022-10-20T16:17:26;22.43;68.54
65584;DHT22;62116;43.582;1.470;2022-10-20T16:19:51;22.44;68.79
65584;DHT22;62116;43.582;1.470;2022-10-20T16:22:17;22.43;68.49
65584;DHT22;62116;43.582;1.470;2022-10-20T16:24:42;22.40;68.67
65584;DHT22;62116;43.582;1.470;2022-10-20T16:27:07;22.41;68.47
65584;DHT22;62116;43.582;1.470;2022-10-20T16:29:33;22.39;68.62
65584;DHT22;62116;43.582;1.470;2022-10-20T16:31:58;22.40;68.75
65584;DHT22;62116;43.582;1.470;2022-10-20T16:34:26;22.36;68.70
65584;DHT22;62116;43.582;1.470;2022-10-20T16:36:51;22.37;68.72
65584;DHT22;62116;43.582;1.470;2022-10-20T16:39:17;22.34;68.57
65584;DHT22;62116;43.582;1.470;2022-10-20T16:44:18;22.30;68.25
65584;DHT22;62116;43.582;1.470;2022-10-20T16:46:44;22.32;68.10
65584;DHT22;62116;43.582;1.470;2022-10-20T16:49:09;22.30;67.87
65584;DHT22;62116;43.582;1.470;2022-10-20T16:51:35;22.30;67.78
65584;DHT22;62116;43.582;1.470;2022-10-20T16:54:00;22.27;67.55
65584;DHT22;62116;43.582;1.470;2022-10-20T16:56:26;22.24;67.54
65584;DHT22;62116;43.582;1.470;2022-10-20T16:58:52;22.24;67.17
65584;DHT22;62116;43.582;1.470;2022-10-20T17:01:19;22.23;66.61
65584;DHT22;62116;43.582;1.470;2022-10-20T17:03:47;22.25;66.66
65584;DHT22;62116;43.582;1.470;2022-10-20T17:06:14;22.24;66.44
65584;DHT22;62116;43.582;1.470;2022-10-20T17:08:40;22.24;66.39
65584;DHT22;62116;43.582;1.470;2022-10-20T17:11:09;22.23;66.52
65584;DHT22;62116;43.582;1.470;2022-10-20T17:13:35;22.23;66.00
65584;DHT22;62116;43.582;1.470;2022-10-20T17:18:46;22.20;65.76
65584;DHT22;62116;43.582;1.470;2022-10-20T17:21:13;22.20;65.48
65584;DHT22;62116;43.582;1.470;2022-10-20T17:23:41;22.20;65.19
65584;DHT22;62116;43.582;1.470;2022-10-20T17:26:18;22.21;65.36
65584;DHT22;62116;43.582;1.470;2022-10-20T17:28:44;22.18;65.42
65584;DHT22;62116;43.582;1.470;2022-10-20T17:31:13;22.20;65.66
65584;DHT22;62116;43.582;1.470;2022-10-20T17:33:40;22.18;65.70
65584;DHT22;62116;43.582;1.470;2022-10-20T17:36:06;22.20;65.79
65584;DHT22;62116;43.582;1.470;2022-10-20T17:38:32;22.16;65.97
65584;DHT22;62116;43.582;1.470;2022-10-20T17:41:06;22.17;65.97
65584;DHT22;62116;43.582;1.470;2022-10-20T17:43:32;22.17;66.20
65584;DHT22;62116;43.582;1.470;2022-10-20T17:46:00;22.16;66.05
65584;DHT22;62116;43.582;1.470;2022-10-20T17:48:26;22.17;65.74
65584;DHT22;62116;43.582;1.470;2022-10-20T17:51:05;22.14;65.40
65584;DHT22;62116;43.582;1.470;2022-10-20T17:53:33;22.13;65.26
65584;DHT22;62116;43.582;1.470;2022-10-20T17:56:03;22.14;65.04
65584;DHT22;62116;43.582;1.470;2022-10-20T17:58:29;22.12;65.03
65584;DHT22;62116;43.582;1.470;2022-10-20T18:01:09;22.13;65.22
65584;DHT22;62116;43.582;1.470;2022-10-20T18:03:35;22.12;65.28
65584;DHT22;62116;43.582;1.470;2022-10-20T18:06:11;22.13;65.24
65584;DHT22;62116;43.582;1.470;2022-10-20T18:08:37;22.10;65.43
65584;DHT22;62116;43.582;1.470;2022-10-20T18:11:07;22.10;65.75
65584;DHT22;62116;43.582;1.470;2022-10-20T18:13:33;22.10;65.87
65584;DHT22;62116;43.582;1.470;2022-10-20T18:15:58;22.10;65.92
65584;DHT22;62116;43.582;1.470;2022-10-20T18:18:23;22.10;66.22
65584;DHT22;62116;43.582;1.470;2022-10-20T18:20:53;22.06;66.54
65584;DHT22;62116;43.582;1.470;2022-10-20T18:23:19;22.06;66.71
65584;DHT22;62116;43.582;1.470;2022-10-20T18:25:45;22.03;66.90
65584;DHT22;62116;43.582;1.470;2022-10-20T18:28:10;22.06;67.12
65584;DHT22;62116;43.582;1.470;2022-10-20T18:30:36;22.04;67.22
65584;DHT22;62116;43.582;1.470;2022-10-20T18:33:02;22.03;67.22